sensor_id;sensor_type;location;lat;lon;timestamp;temperature;humidity
67186;HTU21D;54116;53.518;49.398;2022-12-20T00:00:54;-10.73;106.39
67186;HTU21D;54116;53.518;49.398;2022-12-20T00:03:20;-10.66;106.49
67186;HTU21D;54116;53.518;49.398;2022-12-20T00:05:47;-10.56;106.49
67186;HTU21D;54116;53.518;49.398;2022-12-20T00:08:13;-10.51;106.43
67186;HTU21D;54116;53.518;49.398;2022-12-20T00:10:42;-10.47;106.11
67186;HTU21D;54116;53.518;49.398;2022-12-20T00:13:10;-10.45;105.88
67186;HTU21D;54116;53.518;49.398;2022-12-20T00:15:36;-10.40;105.95
67186;HTU21D;54116;53.518;49.398;2022-12-20T00:18:03;-10.32;106.00
67186;HTU21D;54116;53.518;49.398;2022-12-20T00:20:30;-10.25;106.07
67186;HTU21D;54116;53.518;49.398;2022-12-20T00:22:56;-10.17;106.20
67186;HTU21D;54116;53.518;49.398;2022-12-20T00:25:22;-10.13;106.17
67186;HTU21D;54116;53.518;49.398;2022-12-20T00:27:48;-10.07;105.94
67186;HTU21D;54116;53.518;49.398;2022-12-20T00:30:15;-10.07;105.84
67186;HTU21D;54116;53.518;49.398;2022-12-20T00:32:42;-10.03;105.89
67186;HTU21D;54116;53.518;49.398;2022-12-20T00:35:08;-10.02;105.73
67186;HTU21D;54116;53.518;49.398;2022-12-20T00:37:34;-10.02;105.49
67186;HTU21D;54116;53.518;49.398;2022-12-20T00:40:00;-10.02;105.47
67186;HTU21D;54116;53.518;49.398;2022-12-20T00:42:27;-10.02;105.37
67186;HTU21D;54116;53.518;49.398;2022-12-20T00:44:53;-10.03;105.39
67186;HTU21D;54116;53.518;49.398;2022-12-20T00:47:19;-10.03;105.32
67186;HTU21D;54116;53.518;49.398;2022-12-20T00:49:45;-10.04;105.12
67186;HTU21D;54116;53.518;49.398;2022-12-20T00:52:11;-10.01;105.20
67186;HTU21D;54116;53.518;49.398;2022-12-20T00:54:37;-10.02;104.93
67186;HTU21D;54116;53.518;49.398;2022-12-20T00:57:03;-10.07;104.53
67186;HTU21D;54116;53.518;49.398;2022-12-20T00:59:29;-10.03;105.20
67186;HTU21D;54116;53.518;49.398;2022-12-20T01:01:55;-10.02;105.11
67186;HTU21D;54116;53.518;49.398;2022-12-20T01:04:21;-10.08;104.50
67186;HTU21D;54116;53.518;49.398;2022-12-20T01:06:47;-10.16;104.18
67186;HTU21D;54116;53.518;49.398;2022-12-20T01:09:13;-10.17;104.45
67186;HTU21D;54116;53.518;49.398;2022-12-20T01:11:39;-10.21;104.35
67186;HTU21D;54116;53.518;49.398;2022-12-20T01:14:14;-10.26;104.31
67186;HTU21D;54116;53.518;49.398;2022-12-20T01:16:45;-10.37;103.76
67186;HTU21D;54116;53.518;49.398;2022-12-20T01:19:14;-10.45;103.87
67186;HTU21D;54116;53.518;49.398;2022-12-20T01:21:41;-10.56;103.84
67186;HTU21D;54116;53.518;49.398;2022-12-20T01:24:11;-10.63;104.09
67186;HTU21D;54116;53.518;49.398;2022-12-20T01:26:37;-10.67;104.63
67186;HTU21D;54116;53.518;49.398;2022-12-20T01:29:03;-10.77;104.47
67186;HTU21D;54116;53.518;49.398;2022-12-20T01:31:29;-10.85;104.53
67186;HTU21D;54116;53.518;49.398;2022-12-20T01:33:55;-10.92;104.44
67186;HTU21D;54116;53.518;49.398;2022-12-20T01:36:24;-10.94;104.83
67186;HTU21D;54116;53.518;49.398;2022-12-20T01:38:55;-10.87;105.54
67186;HTU21D;54116;53.518;49.398;2022-12-20T01:41:21;-10.84;105.62
67186;HTU21D;54116;53.518;49.398;2022-12-20T01:46:16;-10.77;105.63
67186;HTU21D;54116;53.518;49.398;2022-12-20T01:48:50;-10.74;105.72
67186;HTU21D;54116;53.518;49.398;2022-12-20T01:51:18;-10.84;105.11
67186;HTU21D;54116;53.518;49.398;2022-12-20T01:53:45;-10.85;105.36
67186;HTU21D;54116;53.518;49.398;2022-12-20T01:56:12;-10.88;105.34
67186;HTU21D;54116;53.518;49.398;2022-12-20T01:58:38;-10.89;105.41
67186;HTU21D;54116;53.518;49.398;2022-12-20T02:01:05;-10.89;105.46
67186;HTU21D;54116;53.518;49.398;2022-12-20T02:03:31;-10.92;105.30
67186;HTU21D;54116;53.518;49.398;2022-12-20T02:06:15;-10.88;105.58
67186;HTU21D;54116;53.518;49.398;2022-12-20T02:08:43;-10.86;105.54
67186;HTU21D;54116;53.518;49.398;2022-12-20T02:11:44;-10.81;105.79
67186;HTU21D;54116;53.518;49.398;2022-12-20T02:17:18;-10.78;105.27
67186;HTU21D;54116;53.518;49.398;2022-12-20T02:22:28;-10.76;105.18
67186;HTU21D;54116;53.518;49.398;2022-12-20T02:30:15;-10.93;104.31
67186;HTU21D;54116;53.518;49.398;2022-12-20T02:37:05;-11.12;104.53
67186;HTU21D;54116;53.518;49.398;2022-12-20T02:39:32;-11.19;104.40
67186;HTU21D;54116;53.518;49.398;2022-12-20T02:42:07;-11.25;104.50
67186;HTU21D;54116;53.518;49.398;2022-12-20T02:44:37;-11.33;104.39
67186;HTU21D;54116;53.518;49.398;2022-12-20T02:47:30;-11.45;104.28
67186;HTU21D;54116;53.518;49.398;2022-12-20T02:49:57;-11.53;104.13
67186;HTU21D;54116;53.518;49.398;2022-12-20T02:52:24;-11.54;104.39
67186;HTU21D;54116;53.518;49.398;2022-12-20T02:54:53;-11.54;104.79
67186;HTU21D;54116;53.518;49.398;2022-12-20T02:57:36;-11.60;104.66
67186;HTU21D;54116;53.518;49.398;2022-12-20T03:00:16;-11.69;104.50
67186;HTU21D;54116;53.518;49.398;2022-12-20T03:02:44;-11.76;104.46
67186;HTU21D;54116;53.518;49.398;2022-12-20T03:05:31;-11.86;104.21
67186;HTU21D;54116;53.518;49.398;2022-12-20T03:07:58;-11.91;104.37
67186;HTU21D;54116;53.518;49.398;2022-12-20T03:10:24;-11.97;104.24
67186;HTU21D;54116;53.518;49.398;2022-12-20T03:12:50;-12.09;103.86
67186;HTU21D;54116;53.518;49.398;2022-12-20T03:15:16;-12.20;103.80
67186;HTU21D;54116;53.518;49.398;2022-12-20T03:19:54;-12.23;104.45
67186;HTU21D;54116;53.518;49.398;2022-12-20T03:22:20;-12.25;104.50
67186;HTU21D;54116;53.518;49.398;2022-12-20T03:24:48;-12.24;104.39
67186;HTU21D;54116;53.518;49.398;2022-12-20T03:27:15;-12.26;104.40
67186;HTU21D;54116;53.518;49.398;2022-12-20T03:29:41;-12.24;104.62
67186;HTU21D;54116;53.518;49.398;2022-12-20T03:32:07;-12.18;105.05
67186;HTU21D;54116;53.518;49.398;2022-12-20T03:34:33;-12.14;105.08
67186;HTU21D;54116;53.518;49.398;2022-12-20T03:36:59;-12.17;104.84
67186;HTU21D;54116;53.518;49.398;2022-12-20T03:39:25;-12.17;105.18
67186;HTU21D;54116;53.518;49.398;2022-12-20T03:41:51;-12.15;105.30
67186;HTU21D;54116;53.518;49.398;2022-12-20T03:44:17;-12.20;104.95
67186;HTU21D;54116;53.518;49.398;2022-12-20T03:46:43;-12.24;104.98
67186;HTU21D;54116;53.518;49.398;2022-12-20T03:49:09;-12.22;105.13
67186;HTU21D;54116;53.518;49.398;2022-12-20T03:51:35;-12.22;105.15
67186;HTU21D;54116;53.518;49.398;2022-12-20T03:54:01;-12.20;105.19
67186;HTU21D;54116;53.518;49.398;2022-12-20T03:56:27;-12.22;104.91
67186;HTU21D;54116;53.518;49.398;2022-12-20T03:58:53;-12.30;104.68
67186;HTU21D;54116;53.518;49.398;2022-12-20T04:01:22;-12.35;104.60
67186;HTU21D;54116;53.518;49.398;2022-12-20T04:03:48;-12.38;104.62
67186;HTU21D;54116;53.518;49.398;2022-12-20T04:06:15;-12.41;104.50
67186;HTU21D;54116;53.518;49.398;2022-12-20T04:08:41;-12.38;104.69
67186;HTU21D;54116;53.518;49.398;2022-12-20T04:11:07;-12.40;104.49
67186;HTU21D;54116;53.518;49.398;2022-12-20T04:13:47;-12.42;104.40
67186;HTU21D;54116;53.518;49.398;2022-12-20T04:16:16;-12.42;104.45
67186;HTU21D;54116;53.518;49.398;2022-12-20T04:18:42;-12.41;104.51
67186;HTU21D;54116;53.518;49.398;2022-12-20T04:21:10;-12.42;104.52
67186;HTU21D;54116;53.518;49.398;2022-12-20T04:23:38;-12.40;104.52
67186;HTU21D;54116;53.518;49.398;2022-12-20T04:26:05;-12.39;104.64
67186;HTU21D;54116;53.518;49.398;2022-12-20T04:28:32;-12.40;104.42
67186;HTU21D;54116;53.518;49.398;2022-12-20T04:30:58;-12.45;104.06
67186;HTU21D;54116;53.518;49.398;2022-12-20T04:33:25;-12.44;104.32
67186;HTU21D;54116;53.518;49.398;2022-12-20T04:35:51;-12.48;104.12
67186;HTU21D;54116;53.518;49.398;2022-12-20T04:38:19;-12.55;103.71
67186;HTU21D;54116;53.518;49.398;2022-12-20T04:40:51;-12.55;103.93
67186;HTU21D;54116;53.518;49.398;2022-12-20T04:43:18;-12.51;104.31
67186;HTU21D;54116;53.518;49.398;2022-12-20T04:45:46;-12.45;104.24
67186;HTU21D;54116;53.518;49.398;2022-12-20T04:48:13;-12.45;104.15
67186;HTU21D;54116;53.518;49.398;2022-12-20T04:50:39;-12.40;104.31
67186;HTU21D;54116;53.518;49.398;2022-12-20T04:53:05;-12.28;104.37
67186;HTU21D;54116;53.518;49.398;2022-12-20T04:58:06;-12.04;104.88
67186;HTU21D;54116;53.518;49.398;2022-12-20T05:00:33;-11.90;104.82
67186;HTU21D;54116;53.518;49.398;2022-12-20T05:02:59;-11.78;104.74
67186;HTU21D;54116;53.518;49.398;2022-12-20T05:05:25;-11.69;104.56
67186;HTU21D;54116;53.518;49.398;2022-12-20T05:07:52;-11.64;104.16
67186;HTU21D;54116;53.518;49.398;2022-12-20T05:10:19;-11.61;103.71
67186;HTU21D;54116;53.518;49.398;2022-12-20T05:12:45;-11.54;103.82
67186;HTU21D;54116;53.518;49.398;2022-12-20T05:15:11;-11.42;103.97
67186;HTU21D;54116;53.518;49.398;2022-12-20T05:17:38;-11.32;104.08
67186;HTU21D;54116;53.518;49.398;2022-12-20T05:22:15;-11.18;103.40
67186;HTU21D;54116;53.518;49.398;2022-12-20T05:24:59;-11.16;102.80
67186;HTU21D;54116;53.518;49.398;2022-12-20T05:27:44;-11.19;101.94
67186;HTU21D;54116;53.518;49.398;2022-12-20T05:30:10;-11.18;101.73
67186;HTU21D;54116;53.518;49.398;2022-12-20T05:32:36;-11.08;101.96
67186;HTU21D;54116;53.518;49.398;2022-12-20T05:37:14;-10.91;101.69
67186;HTU21D;54116;53.518;49.398;2022-12-20T05:39:40;-10.91;101.12
67186;HTU21D;54116;53.518;49.398;2022-12-20T05:42:06;-10.84;101.06
67186;HTU21D;54116;53.518;49.398;2022-12-20T05:44:32;-10.77;101.03
67186;HTU21D;54116;53.518;49.398;2022-12-20T05:46:58;-10.70;100.86
67186;HTU21D;54116;53.518;49.398;2022-12-20T05:49:24;-10.63;100.93
67186;HTU21D;54116;53.518;49.398;2022-12-20T05:51:50;-10.52;101.11
67186;HTU21D;54116;53.518;49.398;2022-12-20T05:54:16;-10.37;101.08
67186;HTU21D;54116;53.518;49.398;2022-12-20T05:56:42;-10.25;101.00
67186;HTU21D;54116;53.518;49.398;2022-12-20T05:59:08;-10.15;99.93
67186;HTU21D;54116;53.518;49.398;2022-12-20T06:01:34;-10.01;100.16
67186;HTU21D;54116;53.518;49.398;2022-12-20T06:04:00;-9.82;99.90
67186;HTU21D;54116;53.518;49.398;2022-12-20T06:06:26;-9.69;99.36
67186;HTU21D;54116;53.518;49.398;2022-12-20T06:08:52;-9.56;99.26
67186;HTU21D;54116;53.518;49.398;2022-12-20T06:11:18;-9.41;99.56
67186;HTU21D;54116;53.518;49.398;2022-12-20T06:13:45;-9.24;99.16
67186;HTU21D;54116;53.518;49.398;2022-12-20T06:16:10;-9.12;98.64
67186;HTU21D;54116;53.518;49.398;2022-12-20T06:18:36;-9.01;98.22
67186;HTU21D;54116;53.518;49.398;2022-12-20T06:21:03;-8.93;97.59
67186;HTU21D;54116;53.518;49.398;2022-12-20T06:23:29;-8.81;97.55
67186;HTU21D;54116;53.518;49.398;2022-12-20T06:25:54;-8.68;96.84
67186;HTU21D;54116;53.518;49.398;2022-12-20T06:28:20;-8.56;96.58
67186;HTU21D;54116;53.518;49.398;2022-12-20T06:30:54;-8.50;96.10
67186;HTU21D;54116;53.518;49.398;2022-12-20T06:33:20;-8.49;94.64
67186;HTU21D;54116;53.518;49.398;2022-12-20T06:35:48;-8.52;94.03
67186;HTU21D;54116;53.518;49.398;2022-12-20T06:38:14;-8.54;93.97
67186;HTU21D;54116;53.518;49.398;2022-12-20T06:40:40;-8.51;94.34
67186;HTU21D;54116;53.518;49.398;2022-12-20T06:43:06;-8.43;95.65
67186;HTU21D;54116;53.518;49.398;2022-12-20T06:45:32;-8.45;94.44
67186;HTU21D;54116;53.518;49.398;2022-12-20T06:47:58;-8.42;94.53
67186;HTU21D;54116;53.518;49.398;2022-12-20T06:50:24;-8.30;96.21
67186;HTU21D;54116;53.518;49.398;2022-12-20T06:52:51;-8.19;96.29
67186;HTU21D;54116;53.518;49.398;2022-12-20T06:55:17;-8.08;95.79
67186;HTU21D;54116;53.518;49.398;2022-12-20T06:57:43;-7.98;95.01
67186;HTU21D;54116;53.518;49.398;2022-12-20T07:00:09;-7.92;94.85
67186;HTU21D;54116;53.518;49.398;2022-12-20T07:02:37;-7.96;95.23
67186;HTU21D;54116;53.518;49.398;2022-12-20T07:05:04;-8.00;94.14
67186;HTU21D;54116;53.518;49.398;2022-12-20T07:07:30;-8.11;93.82
67186;HTU21D;54116;53.518;49.398;2022-12-20T07:09:56;-8.16;94.34
67186;HTU21D;54116;53.518;49.398;2022-12-20T07:12:22;-8.12;95.12
67186;HTU21D;54116;53.518;49.398;2022-12-20T07:14:48;-8.13;95.07
67186;HTU21D;54116;53.518;49.398;2022-12-20T07:17:14;-8.11;95.43
67186;HTU21D;54116;53.518;49.398;2022-12-20T07:19:41;-8.10;95.46
67186;HTU21D;54116;53.518;49.398;2022-12-20T07:22:07;-8.07;95.72
67186;HTU21D;54116;53.518;49.398;2022-12-20T07:24:33;-7.92;95.87
67186;HTU21D;54116;53.518;49.398;2022-12-20T07:27:00;-7.81;95.17
67186;HTU21D;54116;53.518;49.398;2022-12-20T07:29:27;-7.79;94.71
67186;HTU21D;54116;53.518;49.398;2022-12-20T07:31:53;-7.72;95.04
67186;HTU21D;54116;53.518;49.398;2022-12-20T07:34:19;-7.68;94.65
67186;HTU21D;54116;53.518;49.398;2022-12-20T07:36:45;-7.55;95.94
67186;HTU21D;54116;53.518;49.398;2022-12-20T07:39:11;-7.44;94.30
67186;HTU21D;54116;53.518;49.398;2022-12-20T07:41:38;-7.26;94.99
67186;HTU21D;54116;53.518;49.398;2022-12-20T07:44:04;-7.21;93.50
67186;HTU21D;54116;53.518;49.398;2022-12-20T07:46:31;-7.08;93.13
67186;HTU21D;54116;53.518;49.398;2022-12-20T07:48:57;-7.08;92.85
67186;HTU21D;54116;53.518;49.398;2022-12-20T07:51:35;-7.09;93.71
67186;HTU21D;54116;53.518;49.398;2022-12-20T07:54:26;-7.02;93.32
67186;HTU21D;54116;53.518;49.398;2022-12-20T07:56:56;-6.97;93.37
67186;HTU21D;54116;53.518;49.398;2022-12-20T07:59:28;-6.88;92.71
67186;HTU21D;54116;53.518;49.398;2022-12-20T08:01:56;-6.74;92.69
67186;HTU21D;54116;53.518;49.398;2022-12-20T08:04:24;-6.63;91.38
67186;HTU21D;54116;53.518;49.398;2022-12-20T08:06:53;-6.65;90.86
67186;HTU21D;54116;53.518;49.398;2022-12-20T08:09:21;-6.65;91.47
67186;HTU21D;54116;53.518;49.398;2022-12-20T08:11:50;-6.58;92.34
67186;HTU21D;54116;53.518;49.398;2022-12-20T08:14:17;-6.36;92.95
67186;HTU21D;54116;53.518;49.398;2022-12-20T08:16:44;-6.21;91.16
67186;HTU21D;54116;53.518;49.398;2022-12-20T08:19:11;-6.14;90.93
67186;HTU21D;54116;53.518;49.398;2022-12-20T08:21:37;-6.20;90.53
67186;HTU21D;54116;53.518;49.398;2022-12-20T08:24:04;-6.18;91.93
67186;HTU21D;54116;53.518;49.398;2022-12-20T08:26:30;-6.11;91.08
67186;HTU21D;54116;53.518;49.398;2022-12-20T08:28:56;-6.04;90.70
67186;HTU21D;54116;53.518;49.398;2022-12-20T08:31:22;-6.22;90.66
67186;HTU21D;54116;53.518;49.398;2022-12-20T08:33:48;-6.15;92.09
67186;HTU21D;54116;53.518;49.398;2022-12-20T08:36:14;-6.00;91.93
67186;HTU21D;54116;53.518;49.398;2022-12-20T08:38:40;-5.99;90.68
67186;HTU21D;54116;53.518;49.398;2022-12-20T08:41:12;-5.98;91.17
67186;HTU21D;54116;53.518;49.398;2022-12-20T08:43:38;-5.98;90.24
67186;HTU21D;54116;53.518;49.398;2022-12-20T08:46:05;-6.04;90.36
67186;HTU21D;54116;53.518;49.398;2022-12-20T08:48:32;-6.07;91.33
67186;HTU21D;54116;53.518;49.398;2022-12-20T08:51:02;-6.06;91.12
67186;HTU21D;54116;53.518;49.398;2022-12-20T08:53:29;-6.06;90.94
67186;HTU21D;54116;53.518;49.398;2022-12-20T08:56:07;-6.19;90.31
67186;HTU21D;54116;53.518;49.398;2022-12-20T08:58:34;-6.21;92.43
67186;HTU21D;54116;53.518;49.398;2022-12-20T09:01:00;-6.13;92.60
67186;HTU21D;54116;53.518;49.398;2022-12-20T09:03:31;-6.13;92.03
67186;HTU21D;54116;53.518;49.398;2022-12-20T09:05:58;-6.14;92.14
67186;HTU21D;54116;53.518;49.398;2022-12-20T09:08:24;-6.09;92.21
67186;HTU21D;54116;53.518;49.398;2022-12-20T09:10:51;-6.15;91.79
67186;HTU21D;54116;53.518;49.398;2022-12-20T09:13:18;-6.20;92.05
67186;HTU21D;54116;53.518;49.398;2022-12-20T09:15:44;-6.24;92.34
67186;HTU21D;54116;53.518;49.398;2022-12-20T09:18:10;-6.28;92.41
67186;HTU21D;54116;53.518;49.398;2022-12-20T09:20:42;-6.26;92.79
67186;HTU21D;54116;53.518;49.398;2022-12-20T09:23:09;-6.33;92.43
67186;HTU21D;54116;53.518;49.398;2022-12-20T09:25:35;-6.51;92.93
67186;HTU21D;54116;53.518;49.398;2022-12-20T09:28:02;-6.44;93.82
67186;HTU21D;54116;53.518;49.398;2022-12-20T09:30:28;-6.47;93.78
67186;HTU21D;54116;53.518;49.398;2022-12-20T09:32:54;-6.47;93.42
67186;HTU21D;54116;53.518;49.398;2022-12-20T09:35:21;-6.42;94.20
67186;HTU21D;54116;53.518;49.398;2022-12-20T09:37:47;-6.42;93.50
67186;HTU21D;54116;53.518;49.398;2022-12-20T09:40:17;-6.47;93.11
67186;HTU21D;54116;53.518;49.398;2022-12-20T09:42:46;-6.52;93.80
67186;HTU21D;54116;53.518;49.398;2022-12-20T09:45:26;-6.55;94.04
67186;HTU21D;54116;53.518;49.398;2022-12-20T09:47:52;-6.48;94.33
67186;HTU21D;54116;53.518;49.398;2022-12-20T09:50:23;-6.59;94.20
67186;HTU21D;54116;53.518;49.398;2022-12-20T09:52:56;-6.63;94.37
67186;HTU21D;54116;53.518;49.398;2022-12-20T09:55:47;-6.51;94.78
67186;HTU21D;54116;53.518;49.398;2022-12-20T10:01:18;-6.56;94.81
67186;HTU21D;54116;53.518;49.398;2022-12-20T10:03:45;-6.49;94.98
67186;HTU21D;54116;53.518;49.398;2022-12-20T10:06:36;-6.53;94.67
67186;HTU21D;54116;53.518;49.398;2022-12-20T10:09:04;-6.58;95.50
67186;HTU21D;54116;53.518;49.398;2022-12-20T10:17:01;-6.63;96.49
67186;HTU21D;54116;53.518;49.398;2022-12-20T10:22:21;-6.57;96.93
67186;HTU21D;54116;53.518;49.398;2022-12-20T10:25:14;-6.53;96.97
67186;HTU21D;54116;53.518;49.398;2022-12-20T10:27:45;-6.52;96.56
67186;HTU21D;54116;53.518;49.398;2022-12-20T10:30:19;-6.57;97.04
67186;HTU21D;54116;53.518;49.398;2022-12-20T10:32:48;-6.65;97.26
67186;HTU21D;54116;53.518;49.398;2022-12-20T10:38:00;-6.85;98.00
67186;HTU21D;54116;53.518;49.398;2022-12-20T10:40:35;-6.81;98.64
67186;HTU21D;54116;53.518;49.398;2022-12-20T10:43:04;-6.80;98.86
67186;HTU21D;54116;53.518;49.398;2022-12-20T10:45:39;-6.86;98.92
67186;HTU21D;54116;53.518;49.398;2022-12-20T10:48:25;-6.77;99.74
67186;HTU21D;54116;53.518;49.398;2022-12-20T10:51:01;-6.74;99.42
67186;HTU21D;54116;53.518;49.398;2022-12-20T10:53:29;-6.75;99.35
67186;HTU21D;54116;53.518;49.398;2022-12-20T10:56:27;-6.75;99.13
67186;HTU21D;54116;53.518;49.398;2022-12-20T10:59:01;-6.79;99.42
67186;HTU21D;54116;53.518;49.398;2022-12-20T11:01:34;-6.76;100.16
67186;HTU21D;54116;53.518;49.398;2022-12-20T11:04:04;-6.78;100.00
67186;HTU21D;54116;53.518;49.398;2022-12-20T11:09:22;-6.83;100.38
67186;HTU21D;54116;53.518;49.398;2022-12-20T11:14:41;-6.86;101.28
67186;HTU21D;54116;53.518;49.398;2022-12-20T11:17:38;-6.86;101.33
67186;HTU21D;54116;53.518;49.398;2022-12-20T11:23:20;-6.91;101.62
67186;HTU21D;54116;53.518;49.398;2022-12-20T11:34:38;-6.89;102.37
67186;HTU21D;54116;53.518;49.398;2022-12-20T11:37:20;-6.89;102.56
67186;HTU21D;54116;53.518;49.398;2022-12-20T11:42:41;-6.89;102.92
67186;HTU21D;54116;53.518;49.398;2022-12-20T11:48:15;-6.85;103.17
67186;HTU21D;54116;53.518;49.398;2022-12-20T11:51:01;-6.88;103.29
67186;HTU21D;54116;53.518;49.398;2022-12-20T11:53:44;-6.86;103.65
67186;HTU21D;54116;53.518;49.398;2022-12-20T11:56:37;-6.86;103.95
67186;HTU21D;54116;53.518;49.398;2022-12-20T12:02:11;-6.82;104.12
67186;HTU21D;54116;53.518;49.398;2022-12-20T12:07:40;-6.87;104.34
67186;HTU21D;54116;53.518;49.398;2022-12-20T12:10:16;-6.87;104.73
67186;HTU21D;54116;53.518;49.398;2022-12-20T12:12:56;-6.85;105.08
67186;HTU21D;54116;53.518;49.398;2022-12-20T12:15:35;-6.82;105.17
67186;HTU21D;54116;53.518;49.398;2022-12-20T12:18:07;-6.83;105.08
67186;HTU21D;54116;53.518;49.398;2022-12-20T12:21:00;-6.79;105.37
67186;HTU21D;54116;53.518;49.398;2022-12-20T12:26:17;-6.75;105.73
67186;HTU21D;54116;53.518;49.398;2022-12-20T12:28:50;-6.75;105.75
67186;HTU21D;54116;53.518;49.398;2022-12-20T12:31:31;-6.73;105.75
67186;HTU21D;54116;53.518;49.398;2022-12-20T12:34:27;-6.72;105.73
67186;HTU21D;54116;53.518;49.398;2022-12-20T12:42:36;-6.72;106.01
67186;HTU21D;54116;53.518;49.398;2022-12-20T12:45:33;-6.71;106.21
67186;HTU21D;54116;53.518;49.398;2022-12-20T12:50:45;-6.71;106.27
67186;HTU21D;54116;53.518;49.398;2022-12-20T12:53:15;-6.70;106.61
67186;HTU21D;54116;53.518;49.398;2022-12-20T12:55:46;-6.68;106.74
67186;HTU21D;54116;53.518;49.398;2022-12-20T13:11:43;-6.60;107.03
67186;HTU21D;54116;53.518;49.398;2022-12-20T13:19:35;-6.52;107.24
67186;HTU21D;54116;53.518;49.398;2022-12-20T13:29:54;-6.46;107.45
67186;HTU21D;54116;53.518;49.398;2022-12-20T13:35:43;-6.42;107.56
67186;HTU21D;54116;53.518;49.398;2022-12-20T13:43:25;-6.33;107.78
67186;HTU21D;54116;53.518;49.398;2022-12-20T13:48:52;-6.29;107.78
67186;HTU21D;54116;53.518;49.398;2022-12-20T13:51:23;-6.29;107.85
67186;HTU21D;54116;53.518;49.398;2022-12-20T13:53:58;-6.28;107.96
67186;HTU21D;54116;53.518;49.398;2022-12-20T13:59:24;-6.22;108.17
67186;HTU21D;54116;53.518;49.398;2022-12-20T14:01:57;-6.22;108.23
67186;HTU21D;54116;53.518;49.398;2022-12-20T14:04:40;-6.21;108.32
67186;HTU21D;54116;53.518;49.398;2022-12-20T14:07:08;-6.19;108.23
67186;HTU21D;54116;53.518;49.398;2022-12-20T14:09:38;-6.19;108.27
67186;HTU21D;54116;53.518;49.398;2022-12-20T14:12:15;-6.16;108.31
67186;HTU21D;54116;53.518;49.398;2022-12-20T14:14:44;-6.13;108.71
67186;HTU21D;54116;53.518;49.398;2022-12-20T14:17:30;-6.09;108.66
67186;HTU21D;54116;53.518;49.398;2022-12-20T14:25:20;-6.02;108.53
67186;HTU21D;54116;53.518;49.398;2022-12-20T14:27:48;-5.99;108.65
67186;HTU21D;54116;53.518;49.398;2022-12-20T14:32:54;-5.96;108.52
67186;HTU21D;54116;53.518;49.398;2022-12-20T14:35:21;-5.92;108.52
67186;HTU21D;54116;53.518;49.398;2022-12-20T14:38:21;-5.89;108.57
67186;HTU21D;54116;53.518;49.398;2022-12-20T14:40:47;-5.89;108.59
67186;HTU21D;54116;53.518;49.398;2022-12-20T14:43:15;-5.87;108.85
67186;HTU21D;54116;53.518;49.398;2022-12-20T14:45:41;-5.86;108.67
67186;HTU21D;54116;53.518;49.398;2022-12-20T14:48:15;-5.84;108.65
67186;HTU21D;54116;53.518;49.398;2022-12-20T14:50:51;-5.84;108.63
67186;HTU21D;54116;53.518;49.398;2022-12-20T14:53:21;-5.89;108.02
67186;HTU21D;54116;53.518;49.398;2022-12-20T14:55:50;-5.98;107.72
67186;HTU21D;54116;53.518;49.398;2022-12-20T14:58:23;-6.07;107.84
67186;HTU21D;54116;53.518;49.398;2022-12-20T15:01:18;-6.14;107.89
67186;HTU21D;54116;53.518;49.398;2022-12-20T15:03:58;-6.18;108.29
67186;HTU21D;54116;53.518;49.398;2022-12-20T15:06:40;-6.18;108.83
67186;HTU21D;54116;53.518;49.398;2022-12-20T15:09:08;-6.27;108.53
67186;HTU21D;54116;53.518;49.398;2022-12-20T15:11:35;-6.36;108.57
67186;HTU21D;54116;53.518;49.398;2022-12-20T15:16:54;-6.51;108.79
67186;HTU21D;54116;53.518;49.398;2022-12-20T15:19:20;-6.57;108.81
67186;HTU21D;54116;53.518;49.398;2022-12-20T15:21:46;-6.59;109.30
67186;HTU21D;54116;53.518;49.398;2022-12-20T15:24:18;-6.61;109.33
67186;HTU21D;54116;53.518;49.398;2022-12-20T15:26:46;-6.64;109.45
67186;HTU21D;54116;53.518;49.398;2022-12-20T15:29:33;-6.60;110.02
67186;HTU21D;54116;53.518;49.398;2022-12-20T15:32:26;-6.64;110.07
67186;HTU21D;54116;53.518;49.398;2022-12-20T15:34:55;-6.72;109.86
67186;HTU21D;54116;53.518;49.398;2022-12-20T15:37:21;-6.76;109.90
67186;HTU21D;54116;53.518;49.398;2022-12-20T15:39:48;-6.77;110.22
67186;HTU21D;54116;53.518;49.398;2022-12-20T15:42:16;-6.80;110.08
67186;HTU21D;54116;53.518;49.398;2022-12-20T15:44:43;-6.83;110.20
67186;HTU21D;54116;53.518;49.398;2022-12-20T15:47:14;-6.83;110.21
67186;HTU21D;54116;53.518;49.398;2022-12-20T15:49:40;-6.80;110.58
67186;HTU21D;54116;53.518;49.398;2022-12-20T15:52:17;-6.74;110.94
67186;HTU21D;54116;53.518;49.398;2022-12-20T15:54:44;-6.66;111.19
67186;HTU21D;54116;53.518;49.398;2022-12-20T15:57:12;-6.59;111.42
67186;HTU21D;54116;53.518;49.398;2022-12-20T15:59:39;-6.55;111.47
67186;HTU21D;54116;53.518;49.398;2022-12-20T16:04:43;-6.48;111.42
67186;HTU21D;54116;53.518;49.398;2022-12-20T16:07:10;-6.47;111.32
67186;HTU21D;54116;53.518;49.398;2022-12-20T16:09:37;-6.45;111.21
67186;HTU21D;54116;53.518;49.398;2022-12-20T16:12:04;-6.48;110.74
67186;HTU21D;54116;53.518;49.398;2022-12-20T16:14:34;-6.49;110.65
67186;HTU21D;54116;53.518;49.398;2022-12-20T16:16:59;-6.51;110.62
67186;HTU21D;54116;53.518;49.398;2022-12-20T16:19:25;-6.50;110.81
67186;HTU21D;54116;53.518;49.398;2022-12-20T16:21:51;-6.46;110.94
67186;HTU21D;54116;53.518;49.398;2022-12-20T16:24:19;-6.46;110.87
67186;HTU21D;54116;53.518;49.398;2022-12-20T16:26:47;-6.41;110.91
67186;HTU21D;54116;53.518;49.398;2022-12-20T16:29:13;-6.34;111.16
67186;HTU21D;54116;53.518;49.398;2022-12-20T16:31:40;-6.28;111.44
67186;HTU21D;54116;53.518;49.398;2022-12-20T16:34:13;-6.24;111.03
67186;HTU21D;54116;53.518;49.398;2022-12-20T16:36:39;-6.24;111.02
67186;HTU21D;54116;53.518;49.398;2022-12-20T16:39:05;-6.20;111.04
67186;HTU21D;54116;53.518;49.398;2022-12-20T16:41:35;-6.15;111.15
67186;HTU21D;54116;53.518;49.398;2022-12-20T16:44:03;-6.09;111.30
67186;HTU21D;54116;53.518;49.398;2022-12-20T16:46:30;-6.08;111.04
67186;HTU21D;54116;53.518;49.398;2022-12-20T16:48:58;-6.09;110.81
67186;HTU21D;54116;53.518;49.398;2022-12-20T16:51:27;-6.11;110.65
67186;HTU21D;54116;53.518;49.398;2022-12-20T16:54:02;-6.13;110.61
67186;HTU21D;54116;53.518;49.398;2022-12-20T16:56:28;-6.13;110.60
67186;HTU21D;54116;53.518;49.398;2022-12-20T16:58:55;-6.07;111.00
67186;HTU21D;54116;53.518;49.398;2022-12-20T17:01:29;-6.00;111.14
67186;HTU21D;54116;53.518;49.398;2022-12-20T17:03:56;-5.93;110.99
67186;HTU21D;54116;53.518;49.398;2022-12-20T17:06:22;-5.87;111.10
67186;HTU21D;54116;53.518;49.398;2022-12-20T17:08:48;-5.79;111.13
67186;HTU21D;54116;53.518;49.398;2022-12-20T17:13:43;-5.73;110.81
67186;HTU21D;54116;53.518;49.398;2022-12-20T17:16:10;-5.71;110.80
67186;HTU21D;54116;53.518;49.398;2022-12-20T17:18:40;-5.69;110.77
67186;HTU21D;54116;53.518;49.398;2022-12-20T17:21:28;-5.65;110.77